Flight Track Log - Related Links

Times and Time Zones

All times are in EDT time to prevent confusion due to time zone crossing. See the DAL268 flight status page for this flight to view local times or setup timezone preferences in your user account.

Time Position Orientation Groundspeed Altitude Reporting Facility
EDT Latitude Longitude Course Direction KTS MPH feet Rate Location/Type
Sat 11:50:38 PM 40.6370 -73.7800 261° West 2 2  Level FlightAware ADS-B
Sat 11:52:20 PM 40.6370 -73.7790 90° East 2 2 20 Level FlightAware ADS-B
Sat 11:52:48 PM 40.6380 -73.7790 360° North 2 2 22 Level FlightAware ADS-B
Sat 11:54:45 PM 40.6370 -73.7790 180° South 9 10 23 Level FlightAware ADS-B
Sat 11:56:08 PM 40.6360 -73.7790 180° South 2 2 25 Level FlightAware ADS-B
Sat 11:58:00 PM 40.5994 -73.4477 108° East  Level FlightAware Approximate
Sat 11:59:00 PM 40.5833 -73.2673 90° East  Level FlightAware Approximate
Sun 12:00:00 AM 40.5537 -73.0910 97° East  Level FlightAware Approximate
Sun 12:01:00 AM 40.5673 -72.9142 72° East  Level FlightAware Approximate
Sun 12:02:00 AM 40.6188 -72.7435 66° East  Level FlightAware Approximate
Sun 12:03:02 AM 40.6360 -73.7760 90° East 22 25  Level FlightAware ADS-B
Sun 12:03:44 AM 40.6380 -73.7750 21° North 29 33 54 Level FlightAware ADS-B
Sun 12:04:23 AM 40.6400 -73.7740 21° North 29 33 59 Level FlightAware ADS-B
Sun 12:04:55 AM 40.6410 -73.7720 57° Northeast 27 31 66 Level FlightAware ADS-B
Sun 12:05:19 AM 40.6420 -73.7710 37° Northeast 29 33 72 Level FlightAware ADS-B
Sun 12:06:04 AM 40.6440 -73.7700 21° North 20 23 77 Level FlightAware ADS-B
Sun 12:06:20 AM 40.6450 -73.7700 360° North 16 18 91 Level FlightAware ADS-B
Sun 12:06:47 AM 40.6450 -73.7690 90° East 20 23 96 Level FlightAware ADS-B
Sun 12:07:29 AM 40.6470 -73.7690 360° North 31 36 108 Level FlightAware ADS-B
Sun 12:07:57 AM 40.6480 -73.7670 57° Northeast 21 24 133 Level FlightAware ADS-B
Sun 12:08:21 AM 40.6480 -73.7660 90° East 21 24 158 Level FlightAware ADS-B
Sun 12:09:01 AM 40.6470 -73.7660 180° South 12 14 188 Level FlightAware ADS-B
Sun 12:09:42 AM 40.6450 -73.7680 217° Southwest 61 70 273 Level FlightAware ADS-B
Sun 12:10:29 AM 40.6190 -73.7880 210° Southwest 183 211 400 935 Climbing FlightAware ADS-B
Sun 12:10:59 AM 40.5980 -73.8080 216° Southwest 196 226 1,200 1,607 Climbing FlightAware ADS-B
Sun 12:11:25 AM 40.5780 -73.8280 217° Southwest 216 249 1,900 1,200 Climbing FlightAware ADS-B
Sun 12:11:54 AM 40.5530 -73.8550 219° Southwest 245 282 2,300 818 Climbing FlightAware ADS-B
Sun 12:12:09 AM 40.5380 -73.8650 207° Southwest 259 298 2,500 1,313 Climbing FlightAware ADS-B
Sun 12:12:26 AM 40.5165 -73.8717 193° South 272 313 3,000 1,636 Climbing FlightAware ADS-B
Sun 12:12:31 AM 40.5099 -73.8723 184° South 276 318 3,100 1,000 Climbing FlightAware ADS-B
Sun 12:12:38 AM 40.5007 -73.8723 180° South 284 327 3,200 1,200 Climbing FlightAware ADS-B
Sun 12:12:46 AM 40.4904 -73.8713 176° South 292 336 3,400 1,385 Climbing FlightAware ADS-B
Sun 12:12:51 AM 40.4837 -73.8701 172° South 296 341 3,500 2,182 Climbing FlightAware ADS-B
Sun 12:12:57 AM 40.4748 -73.8671 166° South 298 343 3,800 2,400 Climbing FlightAware ADS-B
Sun 12:13:06 AM 40.4640 -73.8621 161° South 299 344 4,100 2,143 Climbing FlightAware ADS-B
Sun 12:13:11 AM 40.4570 -73.8575 153° Southeast 302 348 4,300 2,182 Climbing FlightAware ADS-B
Sun 12:13:17 AM 40.4499 -73.8522 150° Southeast 305 351 4,500 2,182 Climbing FlightAware ADS-B
Sun 12:13:22 AM 40.4438 -73.8472 148° Southeast 306 352 4,700 2,000 Climbing FlightAware ADS-B
Sun 12:13:26 AM 40.4388 -73.8428 146° Southeast 307 353 4,800 2,571 Climbing FlightAware ADS-B
Sun 12:13:29 AM 40.4355 -73.8394 142° Southeast 307 353 5,000 2,571 Climbing FlightAware ADS-B
Sun 12:13:33 AM 40.4315 -73.8345 137° Southeast 308 354 5,100 1,714 Climbing FlightAware ADS-B
Sun 12:13:36 AM 40.4285 -73.8307 136° Southeast 308 354 5,200 2,000 Climbing FlightAware ADS-B
Sun 12:13:39 AM 40.4253 -73.8266 136° Southeast 308 354 5,300 3,000 Climbing FlightAware ADS-B
Sun 12:13:42 AM 40.4224 -73.8223 132° Southeast 309 356 5,500 2,571 Climbing FlightAware ADS-B
Sun 12:13:46 AM 40.4198 -73.8178 127° Southeast 310 357 5,600 1,714 Climbing FlightAware ADS-B
Sun 12:13:49 AM 40.4173 -73.8131 125° Southeast 311 358 5,700 2,000 Climbing FlightAware ADS-B
Sun 12:13:52 AM 40.4152 -73.8081 119° Southeast 311 358 5,800 2,250 Climbing FlightAware ADS-B
Sun 12:13:57 AM 40.4122 -73.7996 115° Southeast 312 359 6,000 2,000 Climbing FlightAware ADS-B
Sun 12:14:01 AM 40.4100 -73.7907 108° East 313 360 6,100 1,714 Climbing FlightAware ADS-B
Sun 12:14:04 AM 40.4088 -73.7852 106° East 314 361 6,200 2,000 Climbing FlightAware ADS-B
Sun 12:14:07 AM 40.4077 -73.7795 104° East 316 364 6,300 1,333 Climbing FlightAware ADS-B
Sun 12:14:13 AM 40.4063 -73.7682 99° East 319 367 6,400 1,333 Climbing FlightAware ADS-B
Sun 12:14:16 AM 40.4057 -73.7623 98° East 322 371 6,500 1,500 Climbing FlightAware ADS-B
Sun 12:14:21 AM 40.4052 -73.7525 94° East 325 374 6,600 2,400 Climbing FlightAware ADS-B
Sun 12:14:31 AM 40.4050 -73.7329 91° East 323 372 7,100 2,800 Climbing FlightAware ADS-B
Sun 12:14:36 AM 40.4053 -73.7232 88° East 321 369 7,300 3,000 Climbing FlightAware ADS-B
Sun 12:14:49 AM 40.4072 -73.6981 84° East 317 365 8,000 2,667 Climbing FlightAware ADS-B
Sun 12:15:03 AM 40.4108 -73.6716 80° East 318 366 8,500 1,778 Climbing FlightAware ADS-B
Sun 12:15:16 AM 40.4154 -73.6490 75° East 322 371 8,800 1,500 Climbing FlightAware ADS-B
Sun 12:15:31 AM 40.4221 -73.6184 74° East 329 379 9,200 1,688 Climbing FlightAware ADS-B
Sun 12:15:48 AM 40.4306 -73.5859 71° East 335 386 9,700 2,000 Climbing FlightAware ADS-B
Sun 12:16:19 AM 40.4457 -73.5278 71° East 340 391 10,800 1,292 Climbing FlightAware ADS-B
Sun 12:16:53 AM 40.4632 -73.4555 72° East 374 430 11,100 1,023 Climbing FlightAware ADS-B
Sun 12:17:47 AM 40.4886 -73.3336 75° East 388 447 12,300 1,500 Climbing FlightAware ADS-B
Sun 12:18:33 AM 40.5093 -73.2190 77° East 432 497 13,600 1,737 Climbing FlightAware ADS-B
Sun 12:19:03 AM 40.5286 -73.1426 72° East 445 512 14,500 2,160 Climbing FlightAware ADS-B
Sun 12:19:48 AM 40.5540 -73.0260 74° East 449 517 16,300 2,045 Climbing FlightAware ADS-B
Sun 12:20:31 AM 40.5790 -72.9170 73° East 457 526 17,500 1,814 Climbing FlightAware ADS-B
Sun 12:21:14 AM 40.6070 -72.7960 73° East 465 535 18,900 1,857 Climbing FlightAware ADS-B
Sun 12:21:55 AM 40.6330 -72.6870 73° East 474 545 20,100 1,701 Climbing FlightAware ADS-B
Sun 12:22:21 AM 40.6508 -72.6117 73° East 481 554 20,800 1,579 Climbing FlightAware ADS-B
Sun 12:22:52 AM 40.6714 -72.5213 73° East 488 562 21,600 1,471 Climbing FlightAware ADS-B
Sun 12:24:03 AM 40.7180 -72.3160 73° East 502 578 23,300 1,405 Climbing FlightAware ADS-B
Sun 12:24:43 AM 40.7450 -72.1980 73° East 510 587 24,200 1,301 Climbing FlightAware ADS-B
Sun 12:25:26 AM 40.7740 -72.0720 73° East 518 596 25,100 1,214 Climbing FlightAware ADS-B
Sun 12:26:07 AM 40.8010 -71.9470 74° East 525 604 25,900 1,158 Climbing FlightAware ADS-B
Sun 12:26:23 AM 40.8124 -71.8978 73° East 527 606 26,200 1,174 Climbing FlightAware ADS-B
Sun 12:26:53 AM 40.8331 -71.8046 74° East 532 612 26,800 1,180 Climbing FlightAware ADS-B
Sun 12:27:24 AM 40.8550 -71.7049 74° East 532 612 27,400 474 Climbing FlightAware ADS-B
Sun 12:28:09 AM 40.8820 -71.5880 73° East 535 616 27,400 1,239 Level FlightAware ADS-B
Sun 12:28:56 AM 40.9190 -71.4220 74° East 533 613 29,300 1,955 Climbing FlightAware ADS-B
Sun 12:29:38 AM 40.9600 -71.2940 67° East 525 604 30,300 1,408 Climbing FlightAware ADS-B
Sun 12:30:34 AM 41.0186 -71.1288 65° Northeast 519 597 31,600 1,299 Climbing FlightAware ADS-B
Sun 12:31:15 AM 41.0560 -71.0200 65° Northeast 514 592 32,400 933 Climbing FlightAware ADS-B
Sun 12:32:04 AM 41.1040 -70.8820 65° Northeast 515 593 33,000 353 Climbing FlightAware ADS-B
Sun 12:32:57 AM 41.1510 -70.7450 65° Northeast 515 593 33,000  Level FlightAware ADS-B
Sun 12:33:29 AM 41.1870 -70.6350 66° East 514 592 33,000  Level FlightAware ADS-B
Sun 12:34:34 AM 41.2430 -70.4690 66° East 514 592 33,000  Level FlightAware ADS-B
Sun 12:35:10 AM 41.2720 -70.3800 67° East 514 592 33,000  Level FlightAware ADS-B
Sun 12:39:09 AM 41.5130 -69.6590 66° East 502 578 33,000  Level FlightAware ADS-B
Sun 12:39:47 AM 41.5440 -69.5670 66° East 502 578 33,000  Level FlightAware ADS-B
Sun 12:40:35 AM 41.5820 -69.4520 66° East 502 578 33,000  Level FlightAware ADS-B
Sun 12:41:19 AM 41.6180 -69.3450 66° East 502 578 33,000  Level FlightAware ADS-B
Sun 12:41:55 AM 41.6460 -69.2590 66° East 502 578 33,000  Level FlightAware ADS-B
Sun 12:42:44 AM 41.6860 -69.1400 66° East 502 578 33,000  Level FlightAware ADS-B
Sun 12:43:18 AM 41.7130 -69.0580 66° East 502 578 33,000  Level FlightAware ADS-B
Sun 12:46:10 AM 41.9030 -68.4620 67° East 500 575 33,000  Level FlightAware ADS-B
Sun 12:46:52 AM 41.9360 -68.3620 66° East 500 575 33,000  Level FlightAware ADS-B
Sun 12:47:42 AM 41.9760 -68.2410 66° East 500 575 33,000  Level FlightAware ADS-B
Sun 12:48:31 AM 42.0160 -68.1220 66° East 500 575 33,000  Level FlightAware ADS-B
Sun 12:49:07 AM 42.0440 -68.0350 67° East 500 575 33,000  Level FlightAware ADS-B
Sun 12:49:55 AM 42.0830 -67.9190 66° East 500 575 33,000  Level FlightAware ADS-B
Sun 12:50:36 AM 42.1150 -67.8200 66° East 500 575 33,000  Level FlightAware ADS-B
Sun 12:51:12 AM 42.1440 -67.7330 66° East 500 575 33,000  Level FlightAware ADS-B
Sun 12:52:02 AM 42.1840 -67.6110 66° East 500 575 33,000  Level FlightAware ADS-B
Sun 12:52:38 AM 42.2130 -67.5240 66° East 500 575 33,000  Level FlightAware ADS-B
Sun 12:53:24 AM 42.2500 -67.4130 66° East 500 575 33,000  Level FlightAware ADS-B
Sun 12:54:37 AM 42.3080 -67.2350 66° East 500 575 33,000  Level FlightAware ADS-B
Sun 12:55:14 AM 42.3380 -67.1450 66° East 500 575 33,000  Level FlightAware ADS-B
Sun 12:55:53 AM 42.3690 -67.0510 66° East 500 575 33,000  Level FlightAware ADS-B
Sun 12:57:00 AM 42.4833 -66.5667 66° East 510 587 33,000  Level Moncton Center
Sun 12:58:00 AM 42.5167 -66.3833 76° East 510 587 33,000  Level Moncton Center
Sun 12:59:00 AM 42.5833 -66.2167 61° Northeast 510 587 33,000  Level Moncton Center
Sun 01:00:00 AM 42.6167 -66.0333 76° East 510 587 33,000  Level Moncton Center
Sun 01:01:00 AM 42.6833 -65.8500 64° Northeast 510 587 33,000  Level Moncton Center
Sun 01:07:10 AM 43.0160 -64.7160 64° Northeast 520 598 33,000  Level FlightAware ADS-B
Sun 01:07:55 AM 43.0510 -64.5870 70° East 520 598 33,000  Level FlightAware ADS-B
Sun 01:08:36 AM 43.0880 -64.4530 69° East 521 600 33,000  Level FlightAware ADS-B
Sun 01:09:14 AM 43.1140 -64.3530 70° East 521 600 33,000  Level FlightAware ADS-B
Sun 01:10:02 AM 43.1480 -64.2260 70° East 521 600 33,000  Level FlightAware ADS-B
Sun 01:10:37 AM 43.1730 -64.1340 70° East 521 600 33,000  Level FlightAware ADS-B
Sun 01:11:34 AM 43.2120 -63.9840 70° East 521 600 33,000  Level FlightAware ADS-B
Sun 01:12:10 AM 43.2380 -63.8880 70° East 521 600 33,000  Level FlightAware ADS-B
Sun 01:12:58 AM 43.2710 -63.7620 70° East 521 600 33,000  Level FlightAware ADS-B
Sun 01:13:34 AM 43.2970 -63.6660 70° East 521 600 33,000  Level FlightAware ADS-B
Sun 01:14:22 AM 43.3300 -63.5390 70° East 521 600 33,000  Level FlightAware ADS-B
Sun 01:14:59 AM 43.3560 -63.4410 70° East 521 600 33,000  Level FlightAware ADS-B
Sun 01:16:54 AM 43.4370 -63.1370 70° East 521 600 33,000  Level FlightAware ADS-B
Sun 01:17:31 AM 43.4620 -63.0380 71° East 521 600 33,000  Level FlightAware ADS-B
Sun 01:18:17 AM 43.4950 -62.9160 70° East 521 600 33,000  Level FlightAware ADS-B
Sun 01:18:51 AM 43.5833 -62.4833 70° East 550 633 33,000  Level Gander Center
Sun 01:19:21 AM 43.6000 -62.3833 77° East 550 633 33,000  Level Gander Center
Sun 01:20:00 AM 43.6500 -62.2500 63° Northeast 540 621 33,000  Level Moncton Center
Sun 01:21:00 AM 43.7000 -62.0667 69° East 540 621 33,000  Level Moncton Center
Sun 01:21:21 AM 43.7167 -62.0000 71° East 540 621 33,000  Level Gander Center
Sun 01:22:21 AM 43.7667 -61.7833 72° East 540 621 33,000  Level Gander Center
Sun 01:23:21 AM 43.8000 -61.6000 76° East 540 621 33,000  Level Gander Center
Sun 01:24:00 AM 43.8333 -61.4833 68° East 540 621 33,000  Level Moncton Center
Sun 01:25:00 AM 43.8667 -61.2667 78° East 530 610 33,000  Level Moncton Center
Sun 01:30:55 AM 44.1630 -60.1380 78° East 548 631 33,000  Level FlightAware ADS-B
Sun 01:31:31 AM 44.1870 -60.0350 72° East 548 631 33,000  Level FlightAware ADS-B
Sun 01:32:31 AM 44.2400 -59.7900 73° East 555 639 33,000  Level FlightAware ADS-B
Sun 01:33:11 AM 44.2710 -59.6530 72° East 559 643 33,000  Level FlightAware ADS-B
Sun 01:34:07 AM 44.3130 -59.4590 73° East 559 643 33,000  Level FlightAware ADS-B
Sun 01:34:53 AM 44.3470 -59.3010 73° East 558 642 33,000  Level FlightAware ADS-B
Sun 01:35:29 AM 44.3750 -59.1760 73° East 562 647 33,000  Level FlightAware ADS-B
Sun 01:36:14 AM 44.4080 -59.0190 74° East 565 650 33,000  Level FlightAware ADS-B
Sun 01:36:57 AM 44.4400 -58.8690 73° East 567 652 33,000  Level FlightAware ADS-B
Sun 01:37:37 AM 44.4700 -58.7280 73° East 569 655 33,000  Level FlightAware ADS-B
Sun 01:38:21 AM 44.5040 -58.5690 73° East 569 655 33,000  Level FlightAware ADS-B
Sun 01:39:05 AM 44.5350 -58.4170 74° East 571 657 33,000  Level FlightAware ADS-B
Sun 01:39:45 AM 44.5660 -58.2710 73° East 573 659 33,000  Level FlightAware ADS-B
Sun 01:40:23 AM 44.5940 -58.1350 74° East 576 663 33,000  Level FlightAware ADS-B
Sun 01:41:09 AM 44.6270 -57.9730 74° East 577 664 33,000  Level FlightAware ADS-B
Sun 01:41:51 AM 44.6580 -57.8220 74° East 577 664 33,000  Level FlightAware ADS-B
Sun 01:42:36 AM 44.6870 -57.6760 74° East 576 663 33,000  Level FlightAware ADS-B
Sun 01:43:12 AM 44.7100 -57.5660 74° East 576 663 33,000  Level FlightAware ADS-B
Sun 01:44:00 AM 44.7400 -57.4190 74° East 576 663 33,000  Level FlightAware ADS-B
Sun 01:44:36 AM 44.7620 -57.3080 74° East 576 663 33,000  Level FlightAware ADS-B
Sun 01:45:24 AM 44.7920 -57.1610 74° East 576 663 33,000  Level FlightAware ADS-B
Sun 01:46:00 AM 44.8140 -57.0510 74° East 576 663 33,000  Level FlightAware ADS-B
Sun 01:46:45 AM 44.8660 -56.7600 76° East 573 659 33,000  Level FlightAware ADS-B
Sun 01:47:20 AM 44.8880 -56.6520 74° East 573 659 33,000  Level FlightAware ADS-B
Sun 01:48:02 AM 44.9200 -56.4860 75° East 574 661 33,000  Level FlightAware ADS-B
Sun 01:48:52 AM 44.9510 -56.3330 74° East 574 661 33,000  Level FlightAware ADS-B
Sun 01:49:28 AM 44.9730 -56.2220 74° East 574 661 33,000  Level FlightAware ADS-B
Sun 01:50:26 AM 45.0090 -56.0440 74° East 574 661 33,000  Level FlightAware ADS-B
Sun 01:51:05 AM 45.0330 -55.9250 74° East 574 661 33,000  Level FlightAware ADS-B
Sun 01:51:54 AM 45.0640 -55.7740 74° East 574 661 33,000  Level FlightAware ADS-B
Sun 01:52:30 AM 45.0860 -55.6640 74° East 574 661 33,000  Level FlightAware ADS-B
Sun 01:53:19 AM 45.1170 -55.5130 74° East 574 661 33,000  Level FlightAware ADS-B
Sun 01:53:55 AM 45.1390 -55.4020 74° East 574 661 33,000  Level FlightAware ADS-B
Sun 01:54:43 AM 45.1690 -55.2550 74° East 574 661 33,000  Level FlightAware ADS-B
Sun 01:55:53 AM 45.2390 -54.8130 77° East 567 652 33,000  Level FlightAware ADS-B
Sun 01:56:29 AM 45.2600 -54.7030 75° East 567 652 33,000  Level FlightAware ADS-B
Sun 01:57:17 AM 45.2970 -54.4870 76° East 565 650 33,000  Level FlightAware ADS-B
Sun 01:57:49 AM 45.3170 -54.3760 76° East 566 651 33,000  Level FlightAware ADS-B
Sun 01:58:38 AM 45.3450 -54.2260 75° East 566 651 33,000  Level FlightAware ADS-B
Sun 01:59:13 AM 45.3650 -54.1190 75° East 566 651 33,000  Level FlightAware ADS-B
Sun 02:00:01 AM 45.3930 -53.9720 75° East 566 651 33,000  Level FlightAware ADS-B
Sun 02:00:38 AM 45.4140 -53.8590 75° East 566 651 33,000  Level FlightAware ADS-B
Sun 02:01:26 AM 45.4420 -53.7120 75° East 566 651 33,000  Level FlightAware ADS-B
Sun 02:02:02 AM 45.4620 -53.6010 76° East 566 651 33,000  Level FlightAware ADS-B
Sun 02:02:50 AM 45.4900 -53.4540 75° East 566 651 33,000  Level FlightAware ADS-B
Sun 02:03:28 AM 45.5120 -53.3370 75° East 566 651 33,000  Level FlightAware ADS-B
Sun 02:04:16 AM 45.5390 -53.1900 75° East 566 651 33,000  Level FlightAware ADS-B
Sun 02:04:52 AM 45.5600 -53.0800 75° East 566 651 33,000  Level FlightAware ADS-B
Sun 02:05:49 AM 45.5930 -52.9040 75° East 566 651 33,000  Level FlightAware ADS-B
Sun 02:06:37 AM 45.6210 -52.7570 75° East 566 651 33,000  Level FlightAware ADS-B
Sun 02:07:14 AM 45.6420 -52.6430 75° East 566 651 33,000  Level FlightAware ADS-B
Sun 02:11:00 AM 45.6904 -51.8634 76° East  Level FlightAware Approximate
Sun 02:12:00 AM 45.7243 -51.6625 76° East  Level FlightAware Approximate
Sun 02:13:00 AM 45.7579 -51.4614 76° East  Level FlightAware Approximate
Sun 02:14:00 AM 45.7910 -51.2601 77° East  Level FlightAware Approximate
Sun 02:15:00 AM 45.8239 -51.0586 77° East  Level FlightAware Approximate
Sun 02:15:21 AM 45.9167 -50.5000 77° East 570 656 33,000  Level Gander Center
Sun 02:16:00 AM 45.8577 -50.8573 76° East  Level FlightAware Approximate
Sun 02:16:21 AM 45.9333 -50.2500 84° East 570 656 33,000  Level Gander Center
Sun 02:17:00 AM 45.8918 -50.6559 76° East  Level FlightAware Approximate
Sun 02:17:21 AM 45.9667 -50.0500 76° East 570 656 33,000  Level Gander Center
Sun 02:18:00 AM 45.9255 -50.4543 76° East  Level FlightAware Approximate
Sun 02:18:21 AM 46.0167 -49.8167 73° East 570 656 33,000  Level Gander Center
Sun 02:19:00 AM 45.9589 -50.2524 77° East  Level FlightAware Approximate
Sun 02:19:21 AM 46.0667 -49.5833 73° East 570 656 33,000  Level Gander Center
Sun 02:20:00 AM 45.9919 -50.0503 77° East  Level FlightAware Approximate
Sun 02:20:00 AM 46.0000 -50.0000 70° East 543 625 33,000  Level ETMS Enhanced Traffic Management System
Sun 02:20:21 AM 46.1167 -49.3833 70° East 570 656 33,000  Level Gander Center
Sun 02:21:21 AM 46.1833 -49.1833 64° Northeast 570 656 33,000  Level Gander Center
Sun 02:22:21 AM 46.2167 -48.9667 77° East 570 656 33,000  Level Gander Center
Sun 02:23:21 AM 46.2833 -48.7333 67° East 560 644 33,000  Level Gander Center
Sun 02:24:21 AM 46.3167 -48.5333 76° East 570 656 33,000  Level Gander Center
Sun 02:25:21 AM 46.3833 -48.3000 67° East 580 667 33,000  Level Gander Center
Sun 02:26:21 AM 46.4167 -48.1000 76° East 570 656 33,000  Level Gander Center
Sun 02:27:21 AM 46.4833 -47.8667 67° East 570 656 33,000  Level Gander Center
Sun 02:28:21 AM 46.5333 -47.6500 71° East 570 656 33,000  Level Gander Center
Sun 02:29:21 AM 46.5833 -47.4333 71° East 570 656 33,000  Level Gander Center
Sun 02:30:21 AM 46.6333 -47.2333 70° East 560 644 33,000  Level Gander Center
Sun 02:31:21 AM 46.6667 -47.0167 77° East 560 644 33,000  Level Gander Center
Sun 02:32:21 AM 46.7167 -46.7833 73° East 570 656 33,000  Level Gander Center
Sun 02:34:00 AM 46.7889 -46.4580 72° East  Level FlightAware Approximate
Sun 02:41:00 AM 47.0852 -45.0684 72° East  Level FlightAware Approximate
Sun 02:42:00 AM 47.1261 -44.8687 73° East  Level FlightAware Approximate
Sun 02:43:00 AM 47.1667 -44.6686 73° East  Level FlightAware Approximate
Sun 02:44:00 AM 47.2069 -44.4682 73° East  Level FlightAware Approximate
Sun 02:45:00 AM 47.2468 -44.2676 74° East  Level FlightAware Approximate
Sun 02:46:00 AM 47.2864 -44.0666 74° East  Level FlightAware Approximate
Sun 02:47:00 AM 47.3256 -43.8653 74° East  Level FlightAware Approximate
Sun 02:48:00 AM 47.3644 -43.6637 74° East  Level FlightAware Approximate
Sun 02:49:00 AM 47.4029 -43.4618 74° East  Level FlightAware Approximate
Sun 02:50:00 AM 47.4410 -43.2597 74° East  Level FlightAware Approximate
Sun 02:51:00 AM 47.4788 -43.0572 74° East  Level FlightAware Approximate
Sun 02:52:00 AM 47.5162 -42.8545 75° East  Level FlightAware Approximate
Sun 02:53:00 AM 47.5533 -42.6515 75° East  Level FlightAware Approximate
Sun 02:54:00 AM 47.5900 -42.4481 75° East  Level FlightAware Approximate
Sun 02:55:00 AM 47.6263 -42.2445 75° East  Level FlightAware Approximate
Sun 02:56:00 AM 47.6623 -42.0407 75° East  Level FlightAware Approximate
Sun 02:57:00 AM 47.6979 -41.8365 75° East  Level FlightAware Approximate
Sun 02:58:00 AM 47.7332 -41.6321 76° East  Level FlightAware Approximate
Sun 02:59:00 AM 47.7681 -41.4273 76° East  Level FlightAware Approximate
Sun 03:00:00 AM 47.8026 -41.2224 76° East  Level FlightAware Approximate
Sun 03:01:00 AM 47.8368 -41.0171 76° East  Level FlightAware Approximate
Sun 03:02:00 AM 47.8705 -40.8116 76° East  Level FlightAware Approximate
Sun 03:03:00 AM 47.9040 -40.6058 76° East  Level FlightAware Approximate
Sun 03:04:00 AM 47.9370 -40.3997 76° East  Level FlightAware Approximate
Sun 03:05:00 AM 47.9697 -40.1934 77° East  Level FlightAware Approximate
Sun 03:06:00 AM 48.0019 -39.9867 78° East  Level FlightAware Approximate
Sun 03:06:00 AM 48.0000 -40.0000 78° East 547 629 33,000  Level ETMS Enhanced Traffic Management System
Sun 03:07:00 AM 48.0314 -39.7790 78° East  Level FlightAware Approximate
Sun 03:08:00 AM 48.0604 -39.5711 78° East  Level FlightAware Approximate
Sun 03:09:00 AM 48.0891 -39.3630 78° East  Level FlightAware Approximate
Sun 03:10:00 AM 48.1175 -39.1546 78° East  Level FlightAware Approximate
Sun 03:11:00 AM 48.1454 -38.9460 79° East  Level FlightAware Approximate
Sun 03:12:00 AM 48.2458 -38.2136 79° East 547 629 33,000  Level FlightAware Transoceanic
Sun 03:13:00 AM 48.2745 -37.9892 79° East 547 629 33,000  Level FlightAware Transoceanic
Sun 03:14:00 AM 48.3029 -37.7645 79° East 547 629 33,000  Level FlightAware Transoceanic
Sun 03:15:00 AM 48.3307 -37.5395 80° East 547 629 33,000  Level FlightAware Transoceanic
Sun 03:16:00 AM 48.3582 -37.3143 80° East 547 629 33,000  Level FlightAware Transoceanic
Sun 03:17:00 AM 48.3852 -37.0888 80° East 547 629 33,000  Level FlightAware Transoceanic
Sun 03:18:00 AM 48.4118 -36.8631 80° East 547 629 33,000  Level FlightAware Transoceanic
Sun 03:19:00 AM 48.4379 -36.6372 80° East 547 629 33,000  Level FlightAware Transoceanic
Sun 03:20:00 AM 48.4636 -36.4110 80° East 547 629 33,000  Level FlightAware Transoceanic
Sun 03:21:00 AM 48.4888 -36.1847 81° East 547 629 33,000  Level FlightAware Transoceanic
Sun 03:22:00 AM 48.5136 -35.9580 81° East 547 629 33,000  Level FlightAware Transoceanic
Sun 03:23:00 AM 48.5380 -35.7312 81° East 547 629 33,000  Level FlightAware Transoceanic
Sun 03:24:00 AM 48.5619 -35.5042 81° East 547 629 33,000  Level FlightAware Transoceanic
Sun 03:25:00 AM 48.5854 -35.2769 81° East 547 629 33,000  Level FlightAware Transoceanic
Sun 03:26:00 AM 48.6084 -35.0494 81° East 547 629 33,000  Level FlightAware Transoceanic
Sun 03:27:00 AM 48.6309 -34.8218 82° East 547 629 33,000  Level FlightAware Transoceanic
Sun 03:28:00 AM 48.6530 -34.5939 82° East 547 629 33,000  Level FlightAware Transoceanic
Sun 03:29:00 AM 48.6747 -34.3658 82° East 547 629 33,000  Level FlightAware Transoceanic
Sun 03:30:00 AM 48.6959 -34.1376 82° East 547 629 33,000  Level FlightAware Transoceanic
Sun 03:31:00 AM 48.7167 -33.9091 82° East 547 629 33,000  Level FlightAware Transoceanic
Sun 03:32:00 AM 48.7370 -33.6805 82° East 547 629 33,000  Level FlightAware Transoceanic
Sun 03:33:00 AM 48.7569 -33.4516 83° East 547 629 33,000  Level FlightAware Transoceanic
Sun 03:34:00 AM 48.7763 -33.2226 83° East 547 629 33,000  Level FlightAware Transoceanic
Sun 03:35:00 AM 48.7952 -32.9935 83° East 547 629 33,000  Level FlightAware Transoceanic
Sun 03:36:00 AM 48.8137 -32.7641 83° East 547 629 33,000  Level FlightAware Transoceanic
Sun 03:37:00 AM 48.8318 -32.5346 83° East 547 629 33,000  Level FlightAware Transoceanic
Sun 03:38:00 AM 48.8493 -32.3049 83° East 547 629 33,000  Level FlightAware Transoceanic
Sun 03:39:00 AM 48.8665 -32.0751 84° East 547 629 33,000  Level FlightAware Transoceanic
Sun 03:40:00 AM 48.8831 -31.8451 84° East 547 629 33,000  Level FlightAware Transoceanic
Sun 03:41:00 AM 48.8994 -31.6149 84° East 547 629 33,000  Level FlightAware Transoceanic
Sun 03:42:00 AM 48.9151 -31.3846 84° East 547 629 33,000  Level FlightAware Transoceanic
Sun 03:43:00 AM 48.9304 -31.1542 84° East 547 629 33,000  Level FlightAware Transoceanic
Sun 03:44:00 AM 48.9453 -30.9236 84° East 547 629 33,000  Level FlightAware Transoceanic
Sun 03:45:00 AM 48.9596 -30.6929 85° East 547 629 33,000  Level FlightAware Transoceanic
Sun 03:46:00 AM 48.9735 -30.4621 85° East 547 629 33,000  Level FlightAware Transoceanic
Sun 03:47:00 AM 48.9870 -30.2311 85° East 547 629 33,000  Level FlightAware Transoceanic
Sun 03:48:00 AM 48.9991 -30.0158 85° East  Level FlightAware Approximate
Sun 03:49:00 AM 49.0109 -29.8005 85° East  Level FlightAware Approximate
Sun 03:50:00 AM 48.9890 -29.8165 95° East  Level FlightAware Approximate
Sun 03:51:00 AM 48.9757 -29.6015 95° East  Level FlightAware Approximate
Sun 03:51:00 AM 49.0000 -30.0000 95° East 547 629 33,000  Level ETMS Enhanced Traffic Management System
Sun 03:52:00 AM 48.9620 -29.3866 95° East  Level FlightAware Approximate
Sun 03:53:00 AM 48.9479 -29.1725 96° East  Level FlightAware Approximate
Sun 03:54:00 AM 48.9335 -28.9585 96° East  Level FlightAware Approximate
Sun 03:55:00 AM 48.9186 -28.7447 96° East  Level FlightAware Approximate
Sun 03:56:00 AM 48.9040 -28.5309 96° East  Level FlightAware Approximate
Sun 03:57:00 AM 48.8831 -28.1549 96° East 547 629 33,000  Level FlightAware Transoceanic
Sun 03:58:00 AM 48.8665 -27.9249 96° East 547 629 33,000  Level FlightAware Transoceanic
Sun 03:59:00 AM 48.8493 -27.6951 97° East 547 629 33,000  Level FlightAware Transoceanic
Sun 04:00:00 AM 48.8318 -27.4654 97° East 547 629 33,000  Level FlightAware Transoceanic
Sun 04:01:00 AM 48.8137 -27.2359 97° East 547 629 33,000  Level FlightAware Transoceanic
Sun 04:02:00 AM 48.7952 -27.0065 97° East 547 629 33,000  Level FlightAware Transoceanic
Sun 04:03:00 AM 48.7763 -26.7774 97° East 547 629 33,000  Level FlightAware Transoceanic
Sun 04:04:00 AM 48.7569 -26.5484 97° East 547 629 33,000  Level FlightAware Transoceanic
Sun 04:05:00 AM 48.7370 -26.3195 98° East 547 629 33,000  Level FlightAware Transoceanic
Sun 04:06:00 AM 48.7167 -26.0909 98° East 547 629 33,000  Level FlightAware Transoceanic
Sun 04:07:00 AM 48.6959 -25.8624 98° East 547 629 33,000  Level FlightAware Transoceanic
Sun 04:08:00 AM 48.6747 -25.6342 98° East 547 629 33,000  Level FlightAware Transoceanic
Sun 04:09:00 AM 48.6530 -25.4061 98° East 547 629 33,000  Level FlightAware Transoceanic
Sun 04:10:00 AM 48.6309 -25.1782 98° East 547 629 33,000  Level FlightAware Transoceanic
Sun 04:11:00 AM 48.6084 -24.9506 99° East 547 629 33,000  Level FlightAware Transoceanic
Sun 04:12:00 AM 48.5854 -24.7231 99° East 547 629 33,000  Level FlightAware Transoceanic
Sun 04:13:00 AM 48.5619 -24.4958 99° East 547 629 33,000  Level FlightAware Transoceanic
Sun 04:14:00 AM 48.5380 -24.2688 99° East 547 629 33,000  Level FlightAware Transoceanic
Sun 04:15:00 AM 48.5136 -24.0420 99° East 547 629 33,000  Level FlightAware Transoceanic
Sun 04:16:00 AM 48.4888 -23.8153 99° East 547 629 33,000  Level FlightAware Transoceanic
Sun 04:17:00 AM 48.4636 -23.5890 100° East 547 629 33,000  Level FlightAware Transoceanic
Sun 04:18:00 AM 48.4379 -23.3628 100° East 547 629 33,000  Level FlightAware Transoceanic
Sun 04:19:00 AM 48.4118 -23.1369 100° East 547 629 33,000  Level FlightAware Transoceanic
Sun 04:20:00 AM 48.3852 -22.9112 100° East 547 629 33,000  Level FlightAware Transoceanic
Sun 04:21:00 AM 48.3582 -22.6857 100° East 547 629 33,000  Level FlightAware Transoceanic
Sun 04:22:00 AM 48.3307 -22.4605 100° East 547 629 33,000  Level FlightAware Transoceanic
Sun 04:23:00 AM 48.3029 -22.2355 101° East 547 629 33,000  Level FlightAware Transoceanic
Sun 04:24:00 AM 48.2745 -22.0108 101° East 547 629 33,000  Level FlightAware Transoceanic
Sun 04:25:00 AM 48.2458 -21.7864 101° East 547 629 33,000  Level FlightAware Transoceanic
Sun 04:26:00 AM 48.2166 -21.5621 101° East 547 629 33,000  Level FlightAware Transoceanic
Sun 04:27:00 AM 48.1869 -21.3382 101° East 547 629 33,000  Level FlightAware Transoceanic
Sun 04:28:00 AM 48.1568 -21.1145 101° East 547 629 33,000  Level FlightAware Transoceanic
Sun 04:29:00 AM 48.1263 -20.8910 102° East 547 629 33,000  Level FlightAware Transoceanic
Sun 04:30:00 AM 48.0954 -20.6679 102° East 547 629 33,000  Level FlightAware Transoceanic
Sun 04:31:00 AM 48.0640 -20.4450 102° East 547 629 33,000  Level FlightAware Transoceanic
Sun 04:32:00 AM 48.0322 -20.2223 102° East 547 629 33,000  Level FlightAware Transoceanic
Sun 04:33:00 AM 48.0023 -20.0159 102° East  Level FlightAware Approximate
Sun 04:34:00 AM 47.9720 -19.8098 102° East  Level FlightAware Approximate
Sun 04:35:00 AM 48.0030 -19.8215 89° East  Level FlightAware Approximate
Sun 04:36:00 AM 48.0062 -19.6105 89° East  Level FlightAware Approximate
Sun 04:37:00 AM 48.0090 -19.3993 89° East  Level FlightAware Approximate
Sun 04:38:00 AM 48.0114 -19.1882 89° East  Level FlightAware Approximate
Sun 04:39:00 AM 48.0134 -18.9770 89° East  Level FlightAware Approximate
Sun 04:40:00 AM 48.0150 -18.7659 89° East  Level FlightAware Approximate
Sun 04:41:00 AM 48.0163 -18.5547 89° East  Level FlightAware Approximate
Sun 04:42:00 AM 48.0171 -18.3435 90° East  Level FlightAware Approximate
Sun 04:43:00 AM 48.0176 -18.1323 90° East  Level FlightAware Approximate
Sun 04:44:00 AM 48.0177 -17.9211 90° East  Level FlightAware Approximate
Sun 04:45:00 AM 48.0173 -17.7099 90° East  Level FlightAware Approximate
Sun 04:46:00 AM 48.0167 -17.4987 90° East  Level FlightAware Approximate
Sun 04:47:00 AM 48.0174 -17.2875 90° East  Level FlightAware Approximate
Sun 04:48:00 AM 48.0177 -17.0763 90° East  Level FlightAware Approximate
Sun 04:49:00 AM 48.0176 -16.8651 90° East  Level FlightAware Approximate
Sun 04:50:00 AM 48.0171 -16.6539 90° East  Level FlightAware Approximate
Sun 04:51:00 AM 48.0162 -16.4427 90° East  Level FlightAware Approximate
Sun 04:52:00 AM 48.0150 -16.2316 90° East  Level FlightAware Approximate
Sun 04:53:00 AM 48.0134 -16.0204 91° East  Level FlightAware Approximate
Sun 04:54:00 AM 48.0113 -15.8092 91° East  Level FlightAware Approximate
Sun 04:55:00 AM 48.0089 -15.5981 91° East  Level FlightAware Approximate
Sun 04:56:00 AM 48.0061 -15.3870 91° East  Level FlightAware Approximate
Sun 04:57:00 AM 48.0029 -15.1759 91° East  Level FlightAware Approximate
Sun 04:58:00 AM 47.9955 -14.9655 101° East  Level FlightAware Approximate
Sun 04:59:00 AM 47.9683 -14.7584 101° East  Level FlightAware Approximate
Sun 05:00:00 AM 47.9407 -14.5515 101° East  Level FlightAware Approximate
Sun 05:01:00 AM 47.9127 -14.3448 101° East  Level FlightAware Approximate
Sun 05:02:00 AM 47.8844 -14.1384 101° East  Level FlightAware Approximate
Sun 05:03:00 AM 47.8557 -13.9322 102° East  Level FlightAware Approximate
Sun 05:04:00 AM 47.8266 -13.7262 102° East  Level FlightAware Approximate
Sun 05:05:00 AM 47.7972 -13.5205 102° East  Level FlightAware Approximate
Sun 05:06:00 AM 47.7674 -13.3150 102° East  Level FlightAware Approximate
Sun 05:07:00 AM 47.7372 -13.1097 102° East  Level FlightAware Approximate
Sun 05:08:00 AM 47.7067 -12.9047 102° East  Level FlightAware Approximate
Sun 05:09:00 AM 47.6758 -12.6999 103° East  Level FlightAware Approximate
Sun 05:10:00 AM 47.6445 -12.4953 103° East  Level FlightAware Approximate
Sun 05:11:00 AM 47.6129 -12.2910 103° East  Level FlightAware Approximate
Sun 05:12:00 AM 47.5809 -12.0870 103° East  Level FlightAware Approximate
Sun 05:13:00 AM 47.5485 -11.8832 103° East  Level FlightAware Approximate
Sun 05:14:00 AM 47.5158 -11.6796 103° East  Level FlightAware Approximate
Sun 05:15:00 AM 47.4827 -11.4763 103° East  Level FlightAware Approximate
Sun 05:16:00 AM 47.4493 -11.2733 104° East  Level FlightAware Approximate
Sun 05:17:00 AM 47.4155 -11.0705 104° East  Level FlightAware Approximate
Sun 05:18:00 AM 47.3814 -10.8680 104° East  Level FlightAware Approximate
Sun 05:19:00 AM 47.3469 -10.6658 104° East  Level FlightAware Approximate
Sun 05:20:00 AM 47.3120 -10.4638 104° East  Level FlightAware Approximate
Sun 05:21:00 AM 47.2768 -10.2620 104° East  Level FlightAware Approximate
Sun 05:22:00 AM 47.2412 -10.0606 105° East  Level FlightAware Approximate
Sun 05:23:00 AM 47.2053 -9.8594 105° East  Level FlightAware Approximate
Sun 05:24:00 AM 47.1690 -9.6585 105° East  Level FlightAware Approximate
Sun 05:25:00 AM 47.1324 -9.4579 105° East  Level FlightAware Approximate
Sun 05:26:00 AM 47.0955 -9.2575 105° East  Level FlightAware Approximate
Sun 05:27:00 AM 47.0581 -9.0575 105° East  Level FlightAware Approximate
Sun 05:28:00 AM 47.0205 -8.8577 105° East  Level FlightAware Approximate
Sun 05:29:00 AM 47.0003 -8.6546 90° East  Level FlightAware Approximate
Sun 05:30:00 AM 47.0006 -8.4468 90° East  Level FlightAware Approximate
Sun 05:31:00 AM 47.0005 -8.2396 90° East  Level FlightAware Approximate
Sun 05:32:00 AM 47.0001 -8.0325 90° East  Level FlightAware Approximate
Sun 05:33:00 AM 46.9843 -7.8269 98° East  Level FlightAware Approximate
Sun 05:33:12 AM 46.8660 -7.3020 98° East 528 608 33,000  Level FlightAware ADS-B
Sun 05:33:52 AM 46.8430 -7.1330 101° East 530 610 33,000  Level FlightAware ADS-B
Sun 05:34:00 AM 46.9653 -7.6217 98° East  Level FlightAware Approximate
Sun 05:34:37 AM 46.8230 -6.9860 101° East 530 610 33,000  Level FlightAware ADS-B
Sun 05:35:22 AM 46.7970 -6.8080 102° East 528 608 33,000  Level FlightAware ADS-B
Sun 05:36:05 AM 46.7770 -6.6660 102° East 527 606 33,000  Level FlightAware ADS-B
Sun 05:36:46 AM 46.7620 -6.5580 101° East 527 606 33,000  Level FlightAware ADS-B
Sun 05:37:28 AM 46.7330 -6.3640 102° East 526 605 33,000  Level FlightAware ADS-B
Sun 05:38:10 AM 46.7180 -6.2640 102° East 526 605 33,000 558 Level FlightAware ADS-B
Sun 05:38:54 AM 46.6880 -6.0660 102° East 527 606 33,800 1,286 Climbing FlightAware ADS-B
Sun 05:39:34 AM 46.6680 -5.9320 102° East 523 602 34,800 857 Climbing FlightAware ADS-B
Sun 05:40:18 AM 46.6440 -5.7760 103° East 529 609 35,000 143 Climbing FlightAware ADS-B
Sun 05:40:58 AM 46.6240 -5.6410 102° East 528 608 35,000  Level FlightAware ADS-B
Sun 05:41:40 AM 46.6000 -5.4930 103° East 526 605 35,000  Level FlightAware ADS-B
Sun 05:42:24 AM 46.5760 -5.3410 103° East 527 606 35,000  Level FlightAware ADS-B
Sun 05:43:04 AM 46.5550 -5.2070 103° East 526 605 35,000  Level FlightAware ADS-B
Sun 05:43:48 AM 46.5310 -5.0520 103° East 526 605 35,000  Level FlightAware ADS-B
Sun 05:44:28 AM 46.5090 -4.9150 103° East 524 603 35,000  Level FlightAware ADS-B
Sun 05:45:12 AM 46.4840 -4.7650 104° East 523 602 35,000  Level FlightAware ADS-B
Sun 05:46:09 AM 46.4720 -4.6900 103° East 522 601 35,000  Level FlightAware ADS-B
Sun 05:46:54 AM 46.4270 -4.4210 104° East 523 602 35,000  Level FlightAware ADS-B
Sun 05:47:36 AM 46.4040 -4.2780 103° East 523 602 35,000  Level FlightAware ADS-B
Sun 05:48:16 AM 46.3800 -4.1390 104° East 523 602 35,000  Level FlightAware ADS-B
Sun 05:49:00 AM 46.3550 -3.9890 104° East 524 603 35,000  Level FlightAware ADS-B
Sun 05:49:40 AM 46.3310 -3.8530 104° East 524 603 35,000  Level FlightAware ADS-B
Sun 05:50:26 AM 46.3050 -3.7000 104° East 524 603 35,000  Level FlightAware ADS-B
Sun 05:51:08 AM 46.2800 -3.5580 104° East 524 603 35,000  Level FlightAware ADS-B
Sun 05:51:48 AM 46.2560 -3.4220 104° East 525 604 35,000  Level FlightAware ADS-B
Sun 05:52:28 AM 46.2320 -3.2870 104° East 524 603 35,000  Level FlightAware ADS-B
Sun 05:53:08 AM 46.2080 -3.1510 104° East 524 603 35,000  Level FlightAware ADS-B
Sun 05:53:53 AM 46.1810 -3.0020 105° East 525 604 35,000  Level FlightAware ADS-B
Sun 05:54:33 AM 46.1560 -2.8600 104° East 524 603 35,000  Level FlightAware ADS-B
Sun 05:55:17 AM 46.1290 -2.7150 105° East 523 602 35,000  Level FlightAware ADS-B
Sun 05:56:22 AM 46.0960 -2.5370 105° East 522 601 35,000  Level FlightAware ADS-B
Sun 05:57:01 AM 46.0650 -2.3660 105° East 521 600 35,000  Level FlightAware ADS-B
Sun 05:57:41 AM 46.0390 -2.2330 106° East 522 601 35,000  Level FlightAware ADS-B
Sun 05:58:25 AM 46.0120 -2.0850 105° East 523 602 35,000  Level FlightAware ADS-B
Sun 05:59:09 AM 45.9840 -1.9380 105° East 523 602 35,000  Level FlightAware ADS-B
Sun 05:59:51 AM 45.9560 -1.7970 106° East 525 604 35,000  Level FlightAware ADS-B
Sun 06:00:33 AM 45.9410 -1.6650 99° East 529 609 35,000  Level FlightAware ADS-B
Sun 06:01:41 AM 45.9160 -1.4150 98° East 530 610 35,000  Level FlightAware ADS-B
Sun 06:02:21 AM 45.9000 -1.2800 100° East 528 608 35,000  Level FlightAware ADS-B
Sun 06:03:16 AM 45.8780 -1.0890 99° East 529 609 35,000  Level FlightAware ADS-B
Sun 06:04:01 AM 45.8610 -0.9300 99° East 530 610 35,000  Level FlightAware ADS-B
Sun 06:04:41 AM 45.8460 -0.7950 99° East 530 610 35,000  Level FlightAware ADS-B
Sun 06:05:24 AM 45.8310 -0.6560 99° East 530 610 35,000  Level FlightAware ADS-B
Sun 06:06:06 AM 45.8140 -0.5000 99° East 531 611 35,000  Level FlightAware ADS-B
Sun 06:06:51 AM 45.7960 -0.3440 99° East 531 611 35,000  Level FlightAware ADS-B
Sun 06:07:31 AM 45.7800 -0.2050 99° East 531 611 35,000  Level FlightAware ADS-B
Sun 06:08:11 AM 45.7640 -0.0660 99° East 532 612 35,000  Level FlightAware ADS-B
Sun 06:08:51 AM 45.7480 0.0730 99° East 531 611 35,000  Level FlightAware ADS-B
Sun 06:09:36 AM 45.7300 0.2330 99° East 532 612 35,000  Level FlightAware ADS-B
Sun 06:10:17 AM 45.7130 0.3710 100° East 531 611 35,000  Level FlightAware ADS-B
Sun 06:10:51 AM 45.6990 0.4920 99° East 530 610 35,000  Level FlightAware ADS-B
Sun 06:11:36 AM 45.6800 0.6480 100° East 528 608 35,000  Level FlightAware ADS-B
Sun 06:12:16 AM 45.6630 0.7850 100° East 528 608 35,000  Level FlightAware ADS-B
Sun 06:13:01 AM 45.6440 0.9370 100° East 528 608 35,000  Level FlightAware ADS-B
Sun 06:13:41 AM 45.6290 1.0640 100° East 530 610 35,000  Level FlightAware ADS-B
Sun 06:14:34 AM 45.6080 1.2330 100° East 531 611 35,000  Level FlightAware ADS-B
Sun 06:15:21 AM 45.5930 1.3720 99° East 531 611 35,000  Level FlightAware ADS-B
Sun 06:15:57 AM 45.5660 1.5510 102° East 532 612 35,000  Level FlightAware ADS-B
Sun 06:16:42 AM 45.5470 1.7020 100° East 531 611 35,000  Level FlightAware ADS-B
Sun 06:17:27 AM 45.5260 1.8570 101° East 530 610 35,000  Level FlightAware ADS-B
Sun 06:18:07 AM 45.4940 1.9910 109° East 521 600 35,000  Level FlightAware ADS-B
Sun 06:18:53 AM 45.4560 2.1360 110° East 522 601 35,000  Level FlightAware ADS-B
Sun 06:19:31 AM 45.4250 2.2620 109° East 523 602 35,000  Level FlightAware ADS-B
Sun 06:20:15 AM 45.3910 2.4020 109° East 523 602 35,000  Level FlightAware ADS-B
Sun 06:20:57 AM 45.3570 2.5380 110° East 523 602 35,000  Level FlightAware ADS-B
Sun 06:21:33 AM 45.3330 2.6420 108° East 519 597 35,000  Level FlightAware ADS-B
Sun 06:22:33 AM 45.2810 2.8520 109° East 522 601 35,000  Level FlightAware ADS-B
Sun 06:23:12 AM 45.2530 2.9590 110° East 522 601 35,000  Level FlightAware ADS-B
Sun 06:24:00 AM 45.2190 3.0900 110° East 522 601 35,000  Level FlightAware ADS-B
Sun 06:24:43 AM 45.1720 3.2650 111° Southeast 521 600 35,000  Level FlightAware ADS-B
Sun 06:25:19 AM 45.1410 3.3800 111° Southeast 520 598 35,000  Level FlightAware ADS-B
Sun 06:26:05 AM 45.1030 3.5270 110° East 519 597 35,000  Level FlightAware ADS-B
Sun 06:26:47 AM 45.0670 3.6630 111° Southeast 518 596 35,000  Level FlightAware ADS-B
Sun 06:27:23 AM 45.0380 3.7710 111° Southeast 517 595 35,000  Level FlightAware ADS-B
Sun 06:28:24 AM 44.9780 3.9530 115° Southeast 511 588 35,000  Level FlightAware ADS-B
Sun 06:29:33 AM 44.9040 4.1650 116° Southeast 505 581 35,000  Level FlightAware ADS-B
Sun 06:30:13 AM 44.8640 4.2820 116° Southeast 505 581 35,000  Level FlightAware ADS-B
Sun 06:30:58 AM 44.8190 4.4150 115° Southeast 508 585 35,000  Level FlightAware ADS-B
Sun 06:31:38 AM 44.7760 4.5340 117° Southeast 508 585 35,000  Level FlightAware ADS-B
Sun 06:32:23 AM 44.7280 4.6700 116° Southeast 510 587 35,000  Level FlightAware ADS-B
Sun 06:32:58 AM 44.6920 4.7670 118° Southeast 509 586 35,000  Level FlightAware ADS-B
Sun 06:33:43 AM 44.6430 4.9050 116° Southeast 507 583 35,000  Level FlightAware ADS-B
Sun 06:34:28 AM 44.5930 5.0270 120° Southeast 504 580 35,000  Level FlightAware ADS-B
Sun 06:35:10 AM 44.5430 5.1420 121° Southeast 503 579 35,000  Level FlightAware ADS-B
Sun 06:35:53 AM 44.4890 5.2640 122° Southeast 498 573 35,000  Level FlightAware ADS-B
Sun 06:36:33 AM 44.4390 5.3770 122° Southeast 498 573 35,000  Level FlightAware ADS-B
Sun 06:37:18 AM 44.3840 5.5010 122° Southeast 498 573 35,000  Level FlightAware ADS-B
Sun 06:37:58 AM 44.3340 5.6140 122° Southeast 499 574 35,000  Level FlightAware ADS-B
Sun 06:38:38 AM 44.2850 5.7240 122° Southeast 499 574 35,000  Level FlightAware ADS-B
Sun 06:39:18 AM 44.2380 5.8290 122° Southeast 500 575 35,000  Level FlightAware ADS-B
Sun 06:40:03 AM 44.1810 5.9590 121° Southeast 503 579 35,000  Level FlightAware ADS-B
Sun 06:40:43 AM 44.1360 6.0610 122° Southeast 499 574 35,000  Level FlightAware ADS-B
Sun 06:41:28 AM 44.0780 6.1910 122° Southeast 499 574 35,000  Level FlightAware ADS-B
Sun 06:42:03 AM 44.0360 6.2840 122° Southeast 500 575 35,000  Level FlightAware ADS-B
Sun 06:42:53 AM 43.9760 6.4190 122° Southeast 500 575 35,000  Level FlightAware ADS-B
Sun 06:43:46 AM 43.9100 6.5640 122° Southeast 505 581 35,000  Level FlightAware ADS-B
Sun 06:44:30 AM 43.8520 6.6920 122° Southeast 505 581 35,000  Level FlightAware ADS-B
Sun 06:45:05 AM 43.8130 6.7770 122° Southeast 505 581 35,000  Level FlightAware ADS-B
Sun 06:45:55 AM 43.7470 6.9250 122° Southeast 503 579 35,000  Level FlightAware ADS-B
Sun 06:46:39 AM 43.6930 7.0450 122° Southeast 502 578 35,000  Level FlightAware ADS-B
Sun 06:47:17 AM 43.6470 7.1450 122° Southeast 502 578 35,000  Level FlightAware ADS-B
Sun 06:48:00 AM 43.5940 7.2650 121° Southeast 502 578 35,000  Level FlightAware ADS-B
Sun 06:48:44 AM 43.5390 7.3870 122° Southeast 502 578 35,000  Level FlightAware ADS-B
Sun 06:49:26 AM 43.4880 7.4980 122° Southeast 500 575 35,000  Level FlightAware ADS-B
Sun 06:50:06 AM 43.4390 7.6060 122° Southeast 500 575 35,000  Level FlightAware ADS-B
Sun 06:50:46 AM 43.3890 7.7170 122° Southeast 500 575 35,000  Level FlightAware ADS-B
Sun 06:51:32 AM 43.3350 7.8350 122° Southeast 499 574 35,000  Level FlightAware ADS-B
Sun 06:52:12 AM 43.2840 7.9470 122° Southeast 498 573 35,000  Level FlightAware ADS-B
Sun 06:52:56 AM 43.2310 8.0620 122° Southeast 497 572 35,000  Level FlightAware ADS-B
Sun 06:53:36 AM 43.1810 8.1680 123° Southeast 498 573 35,000  Level FlightAware ADS-B
Sun 06:54:20 AM 43.1270 8.2860 122° Southeast 499 574 35,000  Level FlightAware ADS-B
Sun 06:55:02 AM 43.0760 8.3990 122° Southeast 498 573 35,000  Level FlightAware ADS-B
Sun 06:55:41 AM 43.0290 8.5020 122° Southeast 497 572 35,000  Level FlightAware ADS-B
Sun 06:56:23 AM 42.9780 8.6140 122° Southeast 495 570 35,000  Level FlightAware ADS-B
Sun 06:57:07 AM 42.9240 8.7270 123° Southeast 494 568 35,000  Level FlightAware ADS-B
Sun 06:57:50 AM 42.8710 8.8430 122° Southeast 494 568 35,000  Level FlightAware ADS-B
Sun 06:58:31 AM 42.8210 8.9510 122° Southeast 495 570 35,000  Level FlightAware ADS-B
Sun 06:59:14 AM 42.7660 9.0660 123° Southeast 495 570 35,000  Level FlightAware ADS-B
Sun 06:59:52 AM 42.7190 9.1660 123° Southeast 496 571 35,000  Level FlightAware ADS-B
Sun 07:00:43 AM 42.6600 9.2920 122° Southeast 492 566 35,000  Level FlightAware ADS-B
Sun 07:01:21 AM 42.6100 9.3970 123° Southeast 493 567 35,000  Level FlightAware ADS-B
Sun 07:02:06 AM 42.5620 9.5190 118° Southeast 500 575 35,000  Level FlightAware ADS-B
Sun 07:02:46 AM 42.5290 9.6360 111° Southeast 502 578 35,000  Level FlightAware ADS-B
Sun 07:03:32 AM 42.4900 9.7670 112° Southeast 498 573 35,000  Level FlightAware ADS-B
Sun 07:04:11 AM 42.4590 9.8820 110° East 499 574 35,000  Level FlightAware ADS-B
Sun 07:04:56 AM 42.4040 9.9970 123° Southeast 494 568 35,000  Level FlightAware ADS-B
Sun 07:05:38 AM 42.3500 10.1060 124° Southeast 494 568 35,000  Level FlightAware ADS-B
Sun 07:06:16 AM 42.3010 10.2120 122° Southeast 499 574 35,000  Level FlightAware ADS-B
Sun 07:06:56 AM 42.2530 10.3180 121° Southeast 500 575 35,000  Level FlightAware ADS-B
Sun 07:07:46 AM 42.1900 10.4490 123° Southeast 501 577 35,000  Level FlightAware ADS-B
Sun 07:08:26 AM 42.1390 10.5560 123° Southeast 502 578 35,000  Level FlightAware ADS-B
Sun 07:09:11 AM 42.0810 10.6730 124° Southeast 503 579 35,000  Level FlightAware ADS-B
Sun 07:09:51 AM 42.0300 10.7750 124° Southeast 503 579 35,000  Level FlightAware ADS-B
Sun 07:10:26 AM 41.9850 10.8670 123° Southeast 500 575 35,000  Level FlightAware ADS-B
Sun 07:11:41 AM 41.8880 11.0620 124° Southeast 500 575 35,000  Level FlightAware ADS-B
Sun 07:12:26 AM 41.8290 11.1790 124° Southeast 500 575 35,000  Level FlightAware ADS-B
Sun 07:13:06 AM 41.7770 11.2830 124° Southeast 500 575 35,000  Level FlightAware ADS-B
Sun 07:13:46 AM 41.7240 11.3890 124° Southeast 501 577 35,000  Level FlightAware ADS-B
Sun 07:14:31 AM 41.6660 11.5030 124° Southeast 502 578 35,000  Level FlightAware ADS-B
Sun 07:15:59 AM 41.5860 11.6610 124° Southeast 506 582 35,000  Level FlightAware ADS-B
Sun 07:16:37 AM 41.5040 11.8210 124° Southeast 507 583 35,000  Level FlightAware ADS-B
Sun 07:17:22 AM 41.4450 11.9370 124° Southeast 500 575 35,000  Level FlightAware ADS-B
Sun 07:18:02 AM 41.3900 12.0440 124° Southeast 499 574 35,000  Level FlightAware ADS-B
Sun 07:18:42 AM 41.3370 12.1460 125° Southeast 499 574 35,000  Level FlightAware ADS-B
Sun 07:19:27 AM 41.2770 12.2630 124° Southeast 498 573 35,000  Level FlightAware ADS-B
Sun 07:20:07 AM 41.2230 12.3650 125° Southeast 497 572 35,000  Level FlightAware ADS-B
Sun 07:20:51 AM 41.2030 12.4030 125° Southeast 497 572 35,000  Level FlightAware ADS-B
Sun 07:21:32 AM 41.1130 12.5810 124° Southeast 496 571 35,000  Level FlightAware ADS-B
Sun 07:22:12 AM 41.0670 12.6870 120° Southeast 497 572 35,000  Level FlightAware ADS-B
Sun 07:22:52 AM 41.0240 12.7860 120° Southeast 497 572 35,000  Level FlightAware ADS-B
Sun 07:23:49 AM 40.9580 12.9330 121° Southeast 502 578 35,000  Level FlightAware ADS-B
Sun 07:24:35 AM 40.8970 13.0670 121° Southeast 500 575 35,000  Level FlightAware ADS-B
Sun 07:25:13 AM 40.8530 13.1670 120° Southeast 499 574 35,000  Level FlightAware ADS-B
Sun 07:25:57 AM 40.8010 13.2850 120° Southeast 499 574 35,000  Level FlightAware ADS-B
Sun 07:26:41 AM 40.7500 13.3980 121° Southeast 500 575 35,000  Level FlightAware ADS-B
Sun 07:27:23 AM 40.7000 13.5110 120° Southeast 500 575 35,000  Level FlightAware ADS-B
Sun 07:28:07 AM 40.6480 13.6240 121° Southeast 501 577 35,000  Level FlightAware ADS-B
Sun 07:28:43 AM 40.6050 13.7210 120° Southeast 501 577 35,000  Level FlightAware ADS-B
Sun 07:29:27 AM 40.5540 13.8330 121° Southeast 502 578 35,000  Level FlightAware ADS-B
Sun 07:30:11 AM 40.5010 13.9480 121° Southeast 503 579 35,000  Level FlightAware ADS-B
Sun 07:30:55 AM 40.4480 14.0660 121° Southeast 502 578 35,000  Level FlightAware ADS-B
Sun 07:31:36 AM 40.3990 14.1710 121° Southeast 502 578 35,000  Level FlightAware ADS-B
Sun 07:32:18 AM 40.3480 14.2830 121° Southeast 502 578 35,000  Level FlightAware ADS-B
Sun 07:32:58 AM 40.3000 14.3840 122° Southeast 502 578 35,000  Level FlightAware ADS-B
Sun 07:33:42 AM 40.2470 14.5010 121° Southeast 503 579 35,000  Level FlightAware ADS-B
Sun 07:34:22 AM 40.1980 14.6050 122° Southeast 503 579 35,000  Level FlightAware ADS-B
Sun 07:35:01 AM 40.1520 14.7040 121° Southeast 503 579 35,000  Level FlightAware ADS-B
Sun 07:35:48 AM 40.0960 14.8230 122° Southeast 504 580 35,000  Level FlightAware ADS-B
Sun 07:36:28 AM 40.0450 14.9320 121° Southeast 504 580 35,000  Level FlightAware ADS-B
Sun 07:37:10 AM 39.9940 15.0410 121° Southeast 503 579 35,000  Level FlightAware ADS-B
Sun 07:37:54 AM 39.9400 15.1520 122° Southeast 503 579 35,000  Level FlightAware ADS-B
Sun 07:38:30 AM 39.8970 15.2440 121° Southeast 504 580 35,000  Level FlightAware ADS-B
Sun 07:39:00 AM 39.8590 15.3220 122° Southeast 504 580 35,000  Level FlightAware ADS-B
Sun 07:39:46 AM 39.8030 15.4430 121° Southeast 505 581 35,000  Level FlightAware ADS-B
Sun 07:40:30 AM 39.7490 15.5540 122° Southeast 506 582 35,000  Level FlightAware ADS-B
Sun 07:41:10 AM 39.6990 15.6570 122° Southeast 506 582 35,000  Level FlightAware ADS-B
Sun 07:41:52 AM 39.6460 15.7650 122° Southeast 506 582 35,000  Level FlightAware ADS-B
Sun 07:42:36 AM 39.5910 15.8810 122° Southeast 506 582 35,000  Level FlightAware ADS-B
Sun 07:43:13 AM 39.5510 15.9770 118° Southeast 508 585 35,000  Level FlightAware ADS-B
Sun 07:43:58 AM 39.5090 16.1030 113° Southeast 508 585 35,000  Level FlightAware ADS-B
Sun 07:44:40 AM 39.4710 16.2230 112° Southeast 508 585 35,000  Level FlightAware ADS-B
Sun 07:45:14 AM 39.4410 16.3160 113° Southeast 508 585 35,000  Level FlightAware ADS-B
Sun 07:46:02 AM 39.3970 16.4470 113° Southeast 505 581 35,000  Level FlightAware ADS-B
Sun 07:46:42 AM 39.3590 16.5620 113° Southeast 508 585 35,000  Level FlightAware ADS-B
Sun 07:47:26 AM 39.3200 16.6820 113° Southeast 508 585 35,000  Level FlightAware ADS-B
Sun 07:48:12 AM 39.2760 16.8130 113° Southeast 510 587 35,000  Level FlightAware ADS-B
Sun 07:48:49 AM 39.2410 16.9160 114° Southeast 510 587 35,000  Level FlightAware ADS-B
Sun 07:49:29 AM 39.2040 17.0280 113° Southeast 510 587 35,000  Level FlightAware ADS-B
Sun 07:50:58 AM 39.1660 17.1390 114° Southeast 582 670 35,000  Level FlightAware ADS-B
Sun 07:51:27 AM 39.1040 17.3240 113° Southeast 511 588 35,000  Level FlightAware ADS-B
Sun 07:52:07 AM 39.0660 17.4350 114° Southeast 511 588 35,000  Level FlightAware ADS-B
Sun 07:52:48 AM 39.0260 17.5520 114° Southeast 511 588 35,000  Level FlightAware ADS-B
Sun 07:53:12 AM 39.0030 17.6190 114° Southeast 511 588 35,000  Level FlightAware ADS-B
Sun 07:54:38 AM 38.9240 17.8490 114° Southeast 512 589 35,000  Level FlightAware ADS-B
Sun 07:55:36 AM 38.8690 18.0110 114° Southeast 512 589 35,000  Level FlightAware ADS-B
Sun 07:56:08 AM 38.8260 18.1330 114° Southeast 513 590 35,000  Level FlightAware ADS-B
Sun 07:56:56 AM 38.7960 18.2170 115° Southeast 513 590 35,000  Level FlightAware ADS-B
Sun 07:58:06 AM 38.7270 18.4140 114° Southeast 513 590 35,000  Level FlightAware ADS-B
Sun 07:58:45 AM 38.6700 18.5740 114° Southeast 515 593 35,000  Level FlightAware ADS-B
Sun 07:59:31 AM 38.6250 18.7000 115° Southeast 516 594 35,000  Level FlightAware ADS-B
Sun 08:00:10 AM 38.5860 18.8110 114° Southeast 517 595 35,000  Level FlightAware ADS-B
Sun 08:00:51 AM 38.5460 18.9220 115° Southeast 516 594 35,000  Level FlightAware ADS-B
Sun 08:01:31 AM 38.5100 19.0340 112° Southeast 516 594 35,000  Level FlightAware ADS-B
Sun 08:02:15 AM 38.4750 19.1630 109° East 516 594 35,000  Level FlightAware ADS-B
Sun 08:02:57 AM 38.4450 19.2790 108° East 516 594 35,000  Level FlightAware ADS-B
Sun 08:03:40 AM 38.4110 19.4090 108° East 517 595 35,000  Level FlightAware ADS-B
Sun 08:04:21 AM 38.3800 19.5240 109° East 518 596 35,000  Level FlightAware ADS-B
Sun 08:05:00 AM 38.3500 19.6370 109° East 516 594 35,000  Level FlightAware ADS-B
Sun 08:05:46 AM 38.3140 19.7700 109° East 516 594 35,000  Level FlightAware ADS-B
Sun 08:06:26 AM 38.2830 19.8850 109° East 517 595 35,000  Level FlightAware ADS-B
Sun 08:07:10 AM 38.2480 20.0150 109° East 518 596 35,000  Level FlightAware ADS-B
Sun 08:07:51 AM 38.2170 20.1280 109° East 518 596 35,000  Level FlightAware ADS-B
Sun 08:08:30 AM 38.1840 20.2460 110° East 518 596 35,000  Level FlightAware ADS-B
Sun 08:09:16 AM 38.1480 20.3760 109° East 518 596 35,000  Level FlightAware ADS-B
Sun 08:09:55 AM 38.1160 20.4910 109° East 521 600 35,000  Level FlightAware ADS-B
Sun 08:10:37 AM 38.0850 20.5780 114° Southeast 522 601 35,000  Level FlightAware ADS-B
Sun 08:11:36 AM 38.0130 20.7690 116° Southeast 524 603 35,000  Level FlightAware ADS-B
Sun 08:12:33 AM 37.9530 20.9270 116° Southeast 526 605 35,000  Level FlightAware ADS-B
Sun 08:13:15 AM 37.9090 21.0440 115° Southeast 526 605 35,000  Level FlightAware ADS-B
Sun 08:13:36 AM 37.8880 21.1000 115° Southeast 527 606 35,000  Level FlightAware ADS-B
Sun 08:14:23 AM 37.8350 21.2380 116° Southeast 527 606 35,000  Level FlightAware ADS-B
Sun 08:15:04 AM 37.7920 21.3490 116° Southeast 527 606 35,000  Level FlightAware ADS-B
Sun 08:15:50 AM 37.7430 21.4770 116° Southeast 529 609 35,000  Level FlightAware ADS-B
Sun 08:16:28 AM 37.7000 21.5850 117° Southeast 529 609 35,000  Level FlightAware ADS-B
Sun 08:17:14 AM 37.6520 21.7100 116° Southeast 530 610 35,000  Level FlightAware ADS-B
Sun 08:17:56 AM 37.6060 21.8260 117° Southeast 530 610 35,000 225 Level FlightAware ADS-B
Sun 08:18:34 AM 37.5650 21.9320 116° Southeast 533 613 35,300 1,000 Climbing FlightAware ADS-B
Sun 08:19:20 AM 37.5150 22.0600 116° Southeast 533 613 36,400 1,214 Climbing FlightAware ADS-B
Sun 08:19:58 AM 37.4740 22.1630 117° Southeast 529 609 37,000 419 Climbing FlightAware ADS-B
Sun 08:20:46 AM 37.4270 22.2840 116° Southeast 530 610 37,000  Level FlightAware ADS-B
Sun 08:21:24 AM 37.3840 22.4080 114° Southeast 528 608 37,000  Level FlightAware ADS-B
Sun 08:22:08 AM 37.3480 22.5300 110° East 529 609 37,000  Level FlightAware ADS-B
Sun 08:22:49 AM 37.3190 22.6310 110° East 529 609 37,000  Level FlightAware ADS-B
Sun 08:23:30 AM 37.2780 22.7720 110° East 531 611 37,000  Level FlightAware ADS-B
Sun 08:24:12 AM 37.2420 22.8940 110° East 532 612 37,000  Level FlightAware ADS-B
Sun 08:24:56 AM 37.2050 23.0210 110° East 535 616 37,000  Level FlightAware ADS-B
Sun 08:25:38 AM 37.1690 23.1410 111° Southeast 536 617 37,000  Level FlightAware ADS-B
Sun 08:26:18 AM 37.1340 23.2570 111° Southeast 537 618 37,000  Level FlightAware ADS-B
Sun 08:27:00 AM 37.0970 23.3800 111° Southeast 538 619 37,000  Level FlightAware ADS-B
Sun 08:27:42 AM 37.0600 23.5050 110° East 539 620 37,000  Level FlightAware ADS-B
Sun 08:28:26 AM 37.0210 23.6310 111° Southeast 539 620 37,000  Level FlightAware ADS-B
Sun 08:29:08 AM 36.9840 23.7530 111° Southeast 539 620 37,000  Level FlightAware ADS-B
Sun 08:29:50 AM 36.9460 23.8780 111° Southeast 540 621 37,000  Level FlightAware ADS-B
Sun 08:30:32 AM 36.9090 23.9980 111° Southeast 540 621 37,000  Level FlightAware ADS-B
Sun 08:31:08 AM 36.8760 24.1050 111° Southeast 540 621 37,000  Level FlightAware ADS-B
Sun 08:31:56 AM 36.8340 24.2420 111° Southeast 540 621 37,000  Level FlightAware ADS-B
Sun 08:32:36 AM 36.7970 24.3580 112° Southeast 540 621 37,000  Level FlightAware ADS-B
Sun 08:33:17 AM 36.7600 24.4770 111° Southeast 541 623 37,000  Level FlightAware ADS-B
Sun 08:33:59 AM 36.7210 24.5980 112° Southeast 541 623 37,000  Level FlightAware ADS-B
Sun 08:34:41 AM 36.6760 24.7170 115° Southeast 543 625 37,000  Level FlightAware ADS-B
Sun 08:35:20 AM 36.6350 24.8280 115° Southeast 540 621 37,000  Level FlightAware ADS-B
Sun 08:36:09 AM 36.5840 24.9670 115° Southeast 543 625 37,000  Level FlightAware ADS-B
Sun 08:36:47 AM 36.5440 25.0750 115° Southeast 544 626 37,000  Level FlightAware ADS-B
Sun 08:37:26 AM 36.5040 25.1860 114° Southeast 545 627 37,000  Level FlightAware ADS-B
Sun 08:38:13 AM 36.4540 25.3200 115° Southeast 547 629 37,000  Level FlightAware ADS-B
Sun 08:38:54 AM 36.4110 25.4370 115° Southeast 548 631 37,000  Level FlightAware ADS-B
Sun 08:39:37 AM 36.3650 25.5600 115° Southeast 549 632 37,000  Level FlightAware ADS-B
Sun 08:40:17 AM 36.3220 25.6770 114° Southeast 549 632 37,000  Level FlightAware ADS-B
Sun 08:41:02 AM 36.2750 25.8030 115° Southeast 551 634 37,000  Level FlightAware ADS-B
Sun 08:41:43 AM 36.2300 25.9200 115° Southeast 551 634 37,000  Level FlightAware ADS-B
Sun 08:42:27 AM 36.1810 26.0490 115° Southeast 552 635 37,000  Level FlightAware ADS-B
Sun 08:43:07 AM 36.1390 26.1600 115° Southeast 553 636 37,000  Level FlightAware ADS-B
Sun 08:43:47 AM 36.0950 26.2780 115° Southeast 553 636 37,000  Level FlightAware ADS-B
Sun 08:44:27 AM 36.0510 26.3920 115° Southeast 554 638 37,000  Level FlightAware ADS-B
Sun 08:45:13 AM 36.0000 26.5230 116° Southeast 554 638 37,000  Level FlightAware ADS-B
Sun 08:46:10 AM 35.9580 26.6320 115° Southeast 555 639 37,000  Level FlightAware ADS-B
Sun 08:46:49 AM 35.8960 26.7890 116° Southeast 555 639 37,000  Level FlightAware ADS-B
Sun 08:47:33 AM 35.8500 26.9100 115° Southeast 555 639 37,000  Level FlightAware ADS-B
Sun 08:48:10 AM 35.8110 27.0050 117° Southeast 556 640 37,000  Level FlightAware ADS-B
Sun 08:48:51 AM 35.7700 27.1110 115° Southeast 557 641 37,000  Level FlightAware ADS-B
Sun 08:49:36 AM 35.7240 27.2310 115° Southeast 558 642 37,000  Level FlightAware ADS-B
Sun 08:50:24 AM 35.6800 27.3430 116° Southeast 558 642 37,000  Level FlightAware ADS-B
Sun 08:51:03 AM 35.6440 27.4390 115° Southeast 558 642 37,000  Level FlightAware ADS-B
Sun 08:53:00 AM 35.5124 27.7379 118° Southeast  Level Estimated
Sun 08:53:16 AM 35.4630 27.8840 118° Southeast 553 636 37,000  Level FlightAware ADS-B
Sun 08:54:05 AM 35.4020 28.0360 116° Southeast 555 639 37,000  Level FlightAware ADS-B
Sun 08:54:49 AM 35.3520 28.1570 117° Southeast 557 641 37,000  Level FlightAware ADS-B
Sun 08:55:27 AM 35.3090 28.2650 116° Southeast 558 642 37,000  Level FlightAware ADS-B
Sun 08:56:11 AM 35.2580 28.3890 117° Southeast 559 643 37,000  Level FlightAware ADS-B
Sun 08:56:51 AM 35.2120 28.5020 116° Southeast 560 644 37,000  Level FlightAware ADS-B
Sun 08:57:31 AM 35.1650 28.6150 117° Southeast 559 643 37,000  Level FlightAware ADS-B
Sun 08:58:12 AM 35.1190 28.7250 117° Southeast 37,000  Level FlightAware ADS-B
Sun 08:58:56 AM 35.0700 28.8460 116° Southeast 555 639 37,000  Level FlightAware ADS-B
Sun 08:59:42 AM 35.0120 28.9860 117° Southeast 556 640 37,000  Level FlightAware ADS-B
Sun 09:00:20 AM 34.9680 29.0930 117° Southeast 556 640 37,000  Level FlightAware ADS-B
Sun 09:01:04 AM 34.9160 29.2150 117° Southeast 554 638 37,000  Level FlightAware ADS-B
Sun 09:02:36 AM 34.8150 29.4540 117° Southeast 550 633 37,000  Level FlightAware ADS-B
Sun 09:03:21 AM 34.7590 29.5890 117° Southeast 546 628 37,000  Level FlightAware ADS-B
Sun 09:04:01 AM 34.7120 29.6960 118° Southeast 545 627 37,000  Level FlightAware ADS-B
Sun 09:04:45 AM 34.6600 29.8190 117° Southeast 544 626 37,000  Level FlightAware ADS-B
Sun 09:05:26 AM 34.6220 29.9130 116° Southeast 543 625 37,000  Level FlightAware ADS-B
Sun 09:06:14 AM 34.5620 30.0470 119° Southeast 543 625 37,000  Level FlightAware ADS-B
Sun 09:07:58 AM 34.4230 30.3330 121° Southeast 544 626 37,000  Level FlightAware ADS-B
Sun 09:08:00 AM 34.4329 30.3074 121° Southeast  Level Estimated
Sun 09:08:38 AM 34.3720 30.4380 120° Southeast 544 626 37,000  Level FlightAware ADS-B
Sun 09:09:18 AM 34.3220 30.5440 120° Southeast 543 625 37,000  Level FlightAware ADS-B
Sun 09:09:44 AM 34.2890 30.6120 120° Southeast 544 626 37,000  Level FlightAware ADS-B
Sun 09:10:25 AM 34.2380 30.7170 120° Southeast 544 626 37,000  Level FlightAware ADS-B
Sun 09:11:42 AM 34.1560 30.8840 121° Southeast 544 626 37,000  Level FlightAware ADS-B
Sun 09:12:26 AM 34.0820 31.0360 120° Southeast 544 626 37,000  Level FlightAware ADS-B
Sun 09:13:01 AM 34.0430 31.1170 120° Southeast 544 626 37,000  Level FlightAware ADS-B
Sun 09:13:47 AM 33.9810 31.2420 121° Southeast 544 626 37,000  Level FlightAware ADS-B
Sun 09:14:26 AM 33.9280 31.3490 121° Southeast 543 625 37,000  Level FlightAware ADS-B
Sun 09:15:07 AM 33.8760 31.4550 121° Southeast 543 625 37,000  Level FlightAware ADS-B
Sun 09:15:36 AM 33.8380 31.5330 120° Southeast 542 624 37,000  Level FlightAware ADS-B
Sun 09:16:17 AM 33.7860 31.6360 121° Southeast 540 621 37,000  Level FlightAware ADS-B
Sun 09:17:13 AM 33.7230 31.7620 121° Southeast 539 620 37,000  Level FlightAware ADS-B
Sun 09:17:56 AM 33.6590 31.8900 121° Southeast 538 619 37,000  Level FlightAware ADS-B
Sun 09:18:22 AM 33.6260 31.9570 121° Southeast 537 618 37,000  Level FlightAware ADS-B
Sun 09:19:11 AM 33.5630 32.0820 121° Southeast 537 618 37,000  Level FlightAware ADS-B
Sun 09:19:52 AM 33.5100 32.1860 121° Southeast 537 618 37,000  Level FlightAware ADS-B
Sun 09:20:47 AM 33.4440 32.3160 121° Southeast 537 618 37,000 -273 Level FlightAware ADS-B
Sun 09:21:42 AM 33.3700 32.4610 121° Southeast 525 604 36,500 -480 Descending FlightAware ADS-B
Sun 09:22:27 AM 33.3240 32.5540 121° Southeast 523 602 36,200 -1,129 Descending FlightAware ADS-B
Sun 09:23:07 AM 33.2650 32.6680 122° Southeast 509 586 34,900 -2,000 Descending FlightAware ADS-B
Sun 09:23:42 AM 33.2230 32.7490 122° Southeast 500 575 33,700 -2,188 Descending FlightAware ADS-B
Sun 09:24:43 AM 33.1450 32.9020 121° Southeast 493 567 31,400 -2,118 Descending FlightAware ADS-B
Sun 09:25:41 AM 33.0860 33.0170 121° Southeast 486 559 29,500 -2,216 Descending FlightAware ADS-B
Sun 09:26:34 AM 33.0150 33.1540 122° Southeast 467 537 27,300 -1,697 Descending FlightAware ADS-B
Sun 09:27:20 AM 32.9710 33.2380 122° Southeast 466 536 26,700 -2,074 Descending FlightAware ADS-B
Sun 09:27:55 AM 32.9230 33.3290 122° Southeast 449 517 24,500 -2,633 Descending FlightAware ADS-B
Sun 09:28:58 AM 32.8570 33.4580 121° Southeast 428 493 22,400 -1,941 Descending FlightAware ADS-B
Sun 09:29:37 AM 32.8170 33.5330 122° Southeast 419 482 21,200 -1,765 Descending FlightAware ADS-B
Sun 09:30:23 AM 32.7700 33.6210 122° Southeast 388 447 19,900 -1,671 Descending FlightAware ADS-B
Sun 09:30:56 AM 32.7400 33.6790 122° Southeast 366 421 19,000 -1,500 Descending FlightAware ADS-B
Sun 09:31:31 AM 32.7110 33.7350 122° Southeast 360 414 18,200 -1,463 Descending FlightAware ADS-B
Sun 09:32:18 AM 32.6690 33.8140 122° Southeast 350 403 17,000 -1,500 Descending FlightAware ADS-B
Sun 09:32:55 AM 32.6380 33.8720 122° Southeast 342 394 16,100 -1,443 Descending FlightAware ADS-B
Sun 09:33:37 AM 32.6020 33.9410 122° Southeast 333 383 15,100 -1,412 Descending FlightAware ADS-B
Sun 09:34:20 AM 32.5670 34.0050 123° Southeast 325 374 14,100 -1,326 Descending FlightAware ADS-B
Sun 09:35:03 AM 32.5330 34.0690 122° Southeast 316 364 13,200 -1,281 Descending FlightAware ADS-B
Sun 09:35:49 AM 32.4970 34.1360 122° Southeast 309 356 12,200 -1,157 Descending FlightAware ADS-B
Sun 09:36:26 AM 32.4640 34.1850 129° Southeast 301 346 11,600 -1,231 Descending FlightAware ADS-B
Sun 09:37:07 AM 32.4250 34.2320 135° Southeast 297 342 10,600 -1,301 Descending FlightAware ADS-B
Sun 09:37:49 AM 32.3840 34.2790 136° Southeast 289 333 9,800 -1,216 Descending FlightAware ADS-B
Sun 09:38:21 AM 32.3540 34.3150 135° Southeast 286 329 9,100 -1,158 Descending FlightAware ADS-B
Sun 09:38:46 AM 32.3290 34.3440 136° Southeast 290 334 8,700 -526 Descending FlightAware ADS-B
Sun 09:39:18 AM 32.3030 34.3750 135° Southeast 289 333 8,600 -136 Descending FlightAware ADS-B
Sun 09:39:30 AM 32.2930 34.3870 135° Southeast 289 333 8,600  Level FlightAware ADS-B
Sun 09:39:55 AM 32.2730 34.4100 136° Southeast 289 333 8,600  Level FlightAware ADS-B
Sun 09:40:20 AM 32.2530 34.4340 135° Southeast 289 333 8,600  Level FlightAware ADS-B
Sun 09:43:00 AM 32.0383 34.8029 125° Southeast  Level FlightAware Approximate
Sun 09:44:00 AM 32.0000 34.8667 125° Southeast  Level FlightAware Approximate
Sun 09:45:00 AM 32.0095 34.8769 125° Southeast  Level Estimated
Sun 09:46:00 AM 32.0095 34.8769 125° Southeast  Level Estimated
Sun 09:47:00 AM 32.0095 34.8769 125° Southeast  Level Estimated
Sun 09:48:00 AM 32.0095 34.8769 125° Southeast  Level Estimated
Sun 09:49:00 AM 32.0095 34.8769 125° Southeast  Level Estimated
Sun 09:50:00 AM 32.0095 34.8769 125° Southeast  Level Estimated
Sun 09:51:00 AM 32.0095 34.8769 125° Southeast  Level Estimated

Login

Don't have an account? Register now (free) for customized features, flight alerts, and more!